createdAt,value
2018-12-08T00:02:13.279Z,3.50
2018-12-08T00:04:42.002Z,3.57
2018-12-08T00:07:10.597Z,3.30
2018-12-08T00:09:39.419Z,3.63
2018-12-08T00:12:08.085Z,3.27
2018-12-08T00:14:36.774Z,3.37
2018-12-08T00:17:05.440Z,3.57
2018-12-08T00:19:34.214Z,3.47
2018-12-08T00:22:02.743Z,3.10
2018-12-08T00:24:31.354Z,2.80
2018-12-08T00:27:00.158Z,2.80
2018-12-08T00:29:29.031Z,3.13
2018-12-08T00:31:57.727Z,3.10
2018-12-08T00:34:26.495Z,3.30
2018-12-08T00:36:55.302Z,3.40
2018-12-08T00:39:24.183Z,3.17
2018-12-08T00:41:52.993Z,3.10
2018-12-08T00:44:21.770Z,3.10
2018-12-08T00:46:50.398Z,3.00
2018-12-08T00:49:19.075Z,3.07
2018-12-08T00:51:47.822Z,2.63
2018-12-08T00:54:16.495Z,3.20
2018-12-08T00:56:45.141Z,3.20
2018-12-08T00:59:13.846Z,3.00
2018-12-08T01:01:42.551Z,3.20
2018-12-08T01:04:11.351Z,2.93
2018-12-08T01:06:40.053Z,3.30
2018-12-08T01:09:09.294Z,3.17
2018-12-08T01:11:38.003Z,3.30
2018-12-08T01:14:06.786Z,3.47
2018-12-08T01:16:35.438Z,3.47
2018-12-08T01:19:04.029Z,3.10
2018-12-08T01:21:32.858Z,3.63
2018-12-08T01:24:01.632Z,2.93
2018-12-08T01:26:30.386Z,2.50
2018-12-08T01:28:58.954Z,3.47
2018-12-08T01:31:27.689Z,3.17
2018-12-08T01:33:56.379Z,3.37
2018-12-08T01:36:25.281Z,3.40
2018-12-08T01:38:54.034Z,3.50
2018-12-08T01:41:22.956Z,3.43
2018-12-08T01:43:51.612Z,3.30
2018-12-08T01:46:20.415Z,2.93
2018-12-08T01:48:49.035Z,3.13
2018-12-08T01:51:17.791Z,3.00
2018-12-08T01:53:46.491Z,3.13
2018-12-08T01:56:15.235Z,3.10
2018-12-08T01:58:43.764Z,3.17
2018-12-08T02:01:12.625Z,2.80
2018-12-08T02:03:41.221Z,3.30
2018-12-08T02:06:10.118Z,2.90
2018-12-08T02:08:39.011Z,3.53
2018-12-08T02:11:07.697Z,3.43
2018-12-08T02:13:36.586Z,3.50
2018-12-08T02:16:05.370Z,3.53
2018-12-08T02:18:34.150Z,3.63
2018-12-08T02:21:02.793Z,4.10
2018-12-08T02:23:31.423Z,3.97
2018-12-08T02:26:00.189Z,3.97
2018-12-08T02:28:29.006Z,3.60
2018-12-08T02:30:57.807Z,3.97
2018-12-08T02:33:26.465Z,4.10
2018-12-08T02:35:55.343Z,4.17
2018-12-08T02:38:24.106Z,4.07
2018-12-08T02:40:52.785Z,4.23
2018-12-08T02:43:21.528Z,4.07
2018-12-08T02:45:50.327Z,4.57
2018-12-08T02:48:18.959Z,3.83
2018-12-08T02:50:47.765Z,3.60
2018-12-08T02:53:16.735Z,4.27
2018-12-08T02:55:45.518Z,3.80
2018-12-08T02:58:14.218Z,4.30
2018-12-08T03:00:43.016Z,4.00
2018-12-08T03:03:11.758Z,4.00
2018-12-08T03:05:40.523Z,3.60
2018-12-08T03:08:09.235Z,3.77
2018-12-08T03:10:38.065Z,3.70
2018-12-08T03:13:06.781Z,3.60
2018-12-08T03:15:35.717Z,3.73
2018-12-08T03:18:04.413Z,3.50
2018-12-08T03:20:33.243Z,3.20
2018-12-08T03:23:01.921Z,3.80
2018-12-08T03:25:30.714Z,3.40
2018-12-08T03:27:59.699Z,3.23
2018-12-08T03:30:28.430Z,3.17
2018-12-08T03:32:57.242Z,3.27
2018-12-08T03:35:26.012Z,3.33
2018-12-08T03:37:54.590Z,3.10
2018-12-08T03:40:23.259Z,3.20
2018-12-08T03:42:52.112Z,3.40
2018-12-08T03:45:20.759Z,3.20
2018-12-08T03:47:49.489Z,2.97
2018-12-08T03:50:18.225Z,3.40
2018-12-08T03:52:47.062Z,3.03
2018-12-08T03:55:15.951Z,2.97
2018-12-08T03:57:44.610Z,2.60
2018-12-08T04:00:13.335Z,3.27
2018-12-08T04:02:42.092Z,2.93
2018-12-08T04:05:10.803Z,2.60
2018-12-08T04:07:39.560Z,2.40
2018-12-08T04:10:08.309Z,2.50
2018-12-08T04:12:37.135Z,2.30
2018-12-08T04:15:06.367Z,2.50
2018-12-08T04:17:35.202Z,1.93
2018-12-08T04:20:04.218Z,2.43
2018-12-08T04:22:32.966Z,2.37
2018-12-08T04:25:01.601Z,2.30
2018-12-08T04:27:31.830Z,2.57
2018-12-08T04:30:00.720Z,2.33
2018-12-08T04:32:29.557Z,2.33
2018-12-08T04:34:58.341Z,2.30
2018-12-08T04:37:27.085Z,2.57
2018-12-08T04:39:55.651Z,2.07
2018-12-08T04:42:24.550Z,2.20
2018-12-08T04:44:53.530Z,1.93
2018-12-08T04:47:22.332Z,2.17
2018-12-08T04:49:51.149Z,2.07
2018-12-08T04:52:20.071Z,2.17
2018-12-08T04:54:48.694Z,2.47
2018-12-08T04:57:17.576Z,2.20
2018-12-08T04:59:46.246Z,1.90
2018-12-08T05:02:15.030Z,2.30
2018-12-08T05:04:44.021Z,2.00
2018-12-08T05:07:12.715Z,2.27
2018-12-08T05:09:41.454Z,2.60
2018-12-08T05:12:09.991Z,2.60
2018-12-08T05:14:38.771Z,2.70
2018-12-08T05:17:07.578Z,2.47
2018-12-08T05:19:36.323Z,2.60
2018-12-08T05:22:04.951Z,2.77
2018-12-08T05:24:33.735Z,2.83
2018-12-08T05:27:02.419Z,4.93
2018-12-08T05:29:31.190Z,2.20
2018-12-08T05:32:00.035Z,2.47
2018-12-08T05:34:28.868Z,2.60
2018-12-08T05:36:57.473Z,2.30
2018-12-08T05:39:26.350Z,2.20
2018-12-08T05:41:55.087Z,2.47
2018-12-08T05:44:23.828Z,2.57
2018-12-08T05:46:52.725Z,2.47
2018-12-08T05:49:21.570Z,2.47
2018-12-08T05:51:50.482Z,2.00
2018-12-08T05:54:19.286Z,1.97
2018-12-08T05:56:48.224Z,2.40
2018-12-08T05:59:16.946Z,2.50
2018-12-08T06:01:45.728Z,2.43
2018-12-08T06:04:14.504Z,2.03
2018-12-08T06:06:43.166Z,2.13
2018-12-08T06:09:12.099Z,2.17
2018-12-08T06:11:41.025Z,2.17
2018-12-08T06:14:09.748Z,1.77
2018-12-08T06:16:38.402Z,2.30
2018-12-08T06:19:07.454Z,2.27
2018-12-08T06:21:38.651Z,2.10
2018-12-08T06:24:07.444Z,2.13
2018-12-08T06:26:58.616Z,2.10
2018-12-08T06:29:28.619Z,2.23
2018-12-08T06:31:57.345Z,1.73
2018-12-08T06:34:32.709Z,1.70
2018-12-08T06:37:01.630Z,1.53
2018-12-08T06:39:30.435Z,1.50
2018-12-08T06:41:59.061Z,2.10
2018-12-08T06:44:27.708Z,2.13
2018-12-08T06:46:56.450Z,2.40
2018-12-08T06:49:25.073Z,3.40
2018-12-08T06:51:53.764Z,2.97
2018-12-08T06:54:22.427Z,3.20
2018-12-08T06:56:51.277Z,2.93
2018-12-08T06:59:20.005Z,6.87
2018-12-08T07:01:48.606Z,3.40
2018-12-08T07:04:17.458Z,3.40
2018-12-08T07:06:46.285Z,3.03
2018-12-08T07:09:15.026Z,2.77
2018-12-08T07:11:43.937Z,2.90
2018-12-08T07:14:12.649Z,2.47
2018-12-08T07:16:41.526Z,2.70
2018-12-08T07:19:10.184Z,3.53
2018-12-08T07:21:39.228Z,3.30
2018-12-08T07:24:08.627Z,4.37
2018-12-08T07:26:37.347Z,6.47
2018-12-08T07:29:05.894Z,6.30
2018-12-08T07:31:34.516Z,6.47
2018-12-08T07:34:03.145Z,5.30
2018-12-08T07:36:31.903Z,4.77
2018-12-08T07:39:00.834Z,3.93
2018-12-08T07:41:29.461Z,4.00
2018-12-08T07:43:58.178Z,3.50
2018-12-08T07:46:26.884Z,3.60
2018-12-08T07:48:55.656Z,5.10
2018-12-08T07:51:24.388Z,5.87
2018-12-08T07:53:53.258Z,4.87
2018-12-08T07:56:21.717Z,4.20
2018-12-08T07:58:57.173Z,3.87
2018-12-08T08:01:26.059Z,4.23
2018-12-08T08:03:55.127Z,4.27
2018-12-08T08:06:23.737Z,4.53
2018-12-08T08:08:52.218Z,4.47
2018-12-08T08:11:20.949Z,4.03
2018-12-08T08:13:49.707Z,4.10
2018-12-08T08:16:21.850Z,3.77
2018-12-08T08:18:56.522Z,4.17
2018-12-08T08:21:25.366Z,4.20
2018-12-08T08:23:54.108Z,3.63
2018-12-08T08:26:23.122Z,3.67
2018-12-08T08:28:51.746Z,3.33
2018-12-08T08:31:20.625Z,3.57
2018-12-08T08:33:49.420Z,4.17
2018-12-08T08:36:18.219Z,3.90
2018-12-08T08:38:53.641Z,4.77
2018-12-08T08:41:22.380Z,4.65
2018-12-08T08:43:51.217Z,4.30
2018-12-08T08:46:19.866Z,3.67
2018-12-08T08:48:48.733Z,4.13
2018-12-08T08:51:17.682Z,3.93
2018-12-08T08:53:46.360Z,3.73
2018-12-08T08:56:15.156Z,4.00
2018-12-08T08:58:43.825Z,3.57
2018-12-08T09:01:12.628Z,3.47
2018-12-08T09:03:41.377Z,3.63
2018-12-08T09:06:10.112Z,3.20
2018-12-08T09:08:38.965Z,3.43
2018-12-08T09:11:07.611Z,3.60
2018-12-08T09:13:36.554Z,3.70
2018-12-08T09:16:05.182Z,4.60
2018-12-08T09:18:34.034Z,4.07
2018-12-08T09:21:02.835Z,4.90
2018-12-08T09:23:31.565Z,4.63
2018-12-08T09:26:00.244Z,3.90
2018-12-08T09:28:28.774Z,4.57
2018-12-08T09:30:57.472Z,3.73
2018-12-08T09:33:26.335Z,3.73
2018-12-08T09:35:55.018Z,3.50
2018-12-08T09:38:23.825Z,4.00
2018-12-08T09:40:52.615Z,4.00
2018-12-08T09:43:21.504Z,4.80
2018-12-08T09:45:50.167Z,6.27
2018-12-08T09:48:18.874Z,6.63
2018-12-08T09:50:47.657Z,5.97
2018-12-08T09:53:18.400Z,6.50
2018-12-08T09:55:47.311Z,4.40
2018-12-08T09:58:16.056Z,4.47
2018-12-08T10:00:44.975Z,3.70
2018-12-08T10:03:13.743Z,3.03
2018-12-08T10:05:42.520Z,3.87
2018-12-08T10:08:11.206Z,4.27
2018-12-08T10:10:39.778Z,4.00
2018-12-08T10:13:08.682Z,3.80
2018-12-08T10:15:37.581Z,2.93
2018-12-08T10:18:06.313Z,3.27
2018-12-08T10:20:35.043Z,2.87
2018-12-08T10:23:03.811Z,3.07
2018-12-08T10:25:32.521Z,4.20
2018-12-08T10:28:01.159Z,6.10
2018-12-08T10:30:29.858Z,4.10
2018-12-08T10:32:58.774Z,4.50
2018-12-08T10:35:27.581Z,6.27
2018-12-08T10:37:56.269Z,7.73
2018-12-08T10:40:25.142Z,4.60
2018-12-08T10:42:53.813Z,2.70
2018-12-08T10:45:22.610Z,2.50
2018-12-08T10:47:51.299Z,4.67
2018-12-08T10:50:19.984Z,7.87
2018-12-08T10:52:48.602Z,9.23
2018-12-08T10:55:17.364Z,4.40
2018-12-08T10:57:46.090Z,4.63
2018-12-08T11:00:20.287Z,3.67
2018-12-08T11:02:52.837Z,2.57
2018-12-08T11:05:22.115Z,2.03
2018-12-08T11:07:51.256Z,2.73
2018-12-08T11:10:20.070Z,2.70
2018-12-08T11:12:48.829Z,2.60
2018-12-08T11:15:17.786Z,3.10
2018-12-08T11:17:46.390Z,2.40
2018-12-08T11:20:15.259Z,3.17
2018-12-08T11:22:44.102Z,4.77
2018-12-08T11:25:12.745Z,4.40
2018-12-08T11:27:41.438Z,4.67
2018-12-08T11:30:10.307Z,3.17
2018-12-08T11:32:39.138Z,3.60
2018-12-08T11:35:07.999Z,5.03
2018-12-08T11:37:36.610Z,3.23
2018-12-08T11:40:05.896Z,3.90
2018-12-08T11:42:34.776Z,3.90
2018-12-08T11:45:03.789Z,4.23
2018-12-08T11:47:32.587Z,5.17
2018-12-08T11:50:01.357Z,4.67
2018-12-08T11:52:30.086Z,3.60
2018-12-08T11:54:58.818Z,3.93
2018-12-08T11:57:28.478Z,3.40
2018-12-08T11:59:57.417Z,3.30
2018-12-08T12:02:26.310Z,3.73
2018-12-08T12:04:55.147Z,3.73
2018-12-08T12:07:23.883Z,2.97
2018-12-08T12:09:52.632Z,2.83
2018-12-08T12:12:21.462Z,2.60
2018-12-08T12:14:50.451Z,2.97
2018-12-08T12:17:19.112Z,3.93
2018-12-08T12:19:47.678Z,5.23
2018-12-08T12:22:16.363Z,6.73
2018-12-08T12:24:45.130Z,5.73
2018-12-08T12:27:13.984Z,5.77
2018-12-08T12:29:42.448Z,6.23
2018-12-08T12:32:11.254Z,9.13
2018-12-08T12:34:40.118Z,6.37
2018-12-08T12:37:08.922Z,5.90
2018-12-08T12:39:37.918Z,5.83
2018-12-08T12:42:06.598Z,5.20
2018-12-08T12:44:35.487Z,3.93
2018-12-08T12:47:04.219Z,3.83
2018-12-08T12:49:33.069Z,3.33
2018-12-08T12:52:01.861Z,4.10
2018-12-08T12:54:30.474Z,3.83
2018-12-08T12:56:59.222Z,2.70
2018-12-08T12:59:28.042Z,2.80
2018-12-08T13:01:56.574Z,2.80
2018-12-08T13:04:25.736Z,2.67
2018-12-08T13:06:54.470Z,2.70
2018-12-08T13:09:23.393Z,2.57
2018-12-08T13:11:52.841Z,3.17
2018-12-08T13:14:21.365Z,3.10
2018-12-08T13:16:50.107Z,3.30
2018-12-08T13:19:18.683Z,4.10
2018-12-08T13:21:47.410Z,4.17
2018-12-08T13:24:16.075Z,3.70
2018-12-08T13:26:44.992Z,4.03
2018-12-08T13:29:13.558Z,3.50
2018-12-08T13:31:42.384Z,3.50
2018-12-08T13:34:21.964Z,3.77
2018-12-08T13:36:57.177Z,3.83
2018-12-08T13:39:25.964Z,3.53
2018-12-08T13:41:54.526Z,3.90
2018-12-08T13:44:35.702Z,3.57
2018-12-08T13:47:04.313Z,5.03
2018-12-08T13:49:33.604Z,4.17
2018-12-08T13:52:02.558Z,4.93
2018-12-08T13:54:47.639Z,4.43
2018-12-08T13:57:16.769Z,3.47
2018-12-08T13:59:53.686Z,4.40
2018-12-08T14:02:23.117Z,4.37
2018-12-08T14:04:52.113Z,3.33
2018-12-08T14:07:21.345Z,3.13
2018-12-08T14:09:50.351Z,3.57
2018-12-08T14:12:19.290Z,2.90
2018-12-08T14:14:48.484Z,2.97
2018-12-08T14:17:17.622Z,2.83
2018-12-08T14:19:46.762Z,2.60
2018-12-08T14:22:15.719Z,2.70
2018-12-08T14:24:44.969Z,2.60
2018-12-08T14:27:14.175Z,2.10
2018-12-08T14:29:43.488Z,3.17
2018-12-08T14:32:12.630Z,3.10
2018-12-08T14:34:41.818Z,3.17
2018-12-08T14:37:10.871Z,4.37
2018-12-08T14:39:39.814Z,3.97
2018-12-08T14:42:08.951Z,4.00
2018-12-08T14:44:38.038Z,3.87
2018-12-08T14:47:07.156Z,3.70
2018-12-08T14:49:36.222Z,4.00
2018-12-08T14:52:05.248Z,3.60
2018-12-08T14:54:34.602Z,3.70
2018-12-08T14:57:03.943Z,4.03
2018-12-08T14:59:33.144Z,3.20
2018-12-08T15:02:02.330Z,3.27
2018-12-08T15:04:31.309Z,2.33
2018-12-08T15:07:00.413Z,2.37
2018-12-08T15:09:29.547Z,1.87
2018-12-08T15:11:58.537Z,2.00
2018-12-08T15:14:27.866Z,2.27
2018-12-08T15:16:56.588Z,2.83
2018-12-08T15:19:25.346Z,3.10
2018-12-08T15:21:54.131Z,5.70
2018-12-08T15:24:22.883Z,3.47
2018-12-08T15:26:51.495Z,3.97
2018-12-08T15:29:20.281Z,4.77
2018-12-08T15:31:48.985Z,4.47
2018-12-08T15:34:17.781Z,4.73
2018-12-08T15:36:46.783Z,9.67
2018-12-08T15:39:15.550Z,4.73
2018-12-08T15:41:44.432Z,4.53
2018-12-08T15:44:13.189Z,5.47
2018-12-08T15:46:42.484Z,4.73
2018-12-08T15:49:11.239Z,4.93
2018-12-08T15:51:39.802Z,10.27
2018-12-08T15:54:08.682Z,5.67
2018-12-08T15:56:37.733Z,5.13
2018-12-08T15:59:06.488Z,5.03
2018-12-08T16:01:35.531Z,6.27
2018-12-08T16:04:04.315Z,8.00
2018-12-08T16:06:33.115Z,5.43
2018-12-08T16:09:01.860Z,5.57
2018-12-08T16:11:30.578Z,5.13
2018-12-08T16:13:59.238Z,5.50
2018-12-08T16:16:27.950Z,5.83
2018-12-08T16:18:56.997Z,4.67
2018-12-08T16:21:25.937Z,5.60
2018-12-08T16:23:54.491Z,4.37
2018-12-08T16:26:23.306Z,4.70
2018-12-08T16:28:52.042Z,5.17
2018-12-08T16:31:20.893Z,5.13
2018-12-08T16:33:49.694Z,5.75
2018-12-08T16:36:18.382Z,5.23
2018-12-08T16:38:47.334Z,7.30
2018-12-08T16:41:16.162Z,6.80
2018-12-08T16:43:45.042Z,9.15
2018-12-08T16:46:14.224Z,8.78
2018-12-08T16:48:42.988Z,7.63
2018-12-08T16:51:11.700Z,6.10
2018-12-08T16:53:40.325Z,5.03
2018-12-08T16:56:09.101Z,4.53
2018-12-08T16:58:37.820Z,4.63
2018-12-08T17:01:06.619Z,4.67
2018-12-08T17:03:35.430Z,5.17
2018-12-08T17:06:04.232Z,5.10
2018-12-08T17:08:32.849Z,5.10
2018-12-08T17:11:01.501Z,5.17
2018-12-08T17:13:30.290Z,5.87
2018-12-08T17:15:59.057Z,5.60
2018-12-08T17:18:27.907Z,6.43
2018-12-08T17:20:56.746Z,5.63
2018-12-08T17:23:25.461Z,6.57
2018-12-08T17:25:54.275Z,6.03
2018-12-08T17:28:22.952Z,6.50
2018-12-08T17:30:51.699Z,6.60
2018-12-08T17:33:20.347Z,5.93
2018-12-08T17:35:49.094Z,6.77
2018-12-08T17:38:17.760Z,6.03
2018-12-08T17:40:46.518Z,6.30
2018-12-08T17:43:15.271Z,6.77
2018-12-08T17:45:44.036Z,7.80
2018-12-08T17:48:12.853Z,8.87
2018-12-08T17:50:41.716Z,6.53
2018-12-08T17:53:10.447Z,6.57
2018-12-08T17:55:39.383Z,6.87
2018-12-08T17:58:08.260Z,6.73
2018-12-08T18:00:37.075Z,6.47
2018-12-08T18:03:05.817Z,6.17
2018-12-08T18:05:34.662Z,6.80
2018-12-08T18:08:03.379Z,7.00
2018-12-08T18:10:32.022Z,6.27
2018-12-08T18:13:00.765Z,6.97
2018-12-08T18:15:29.921Z,6.77
2018-12-08T18:17:58.662Z,6.60
2018-12-08T18:20:27.437Z,6.23
2018-12-08T18:22:56.091Z,6.53
2018-12-08T18:25:24.790Z,6.50
2018-12-08T18:27:53.399Z,5.93
2018-12-08T18:30:22.154Z,7.10
2018-12-08T18:32:50.890Z,5.97
2018-12-08T18:35:19.617Z,6.67
2018-12-08T18:37:48.283Z,6.83
2018-12-08T18:40:17.085Z,6.03
2018-12-08T18:42:45.760Z,5.73
2018-12-08T18:45:14.610Z,5.80
2018-12-08T18:47:43.557Z,6.60
2018-12-08T18:50:12.470Z,6.70
2018-12-08T18:52:41.125Z,6.50
2018-12-08T18:55:09.802Z,6.03
2018-12-08T18:57:38.450Z,7.80
2018-12-08T19:00:09.470Z,11.00
2018-12-08T19:02:38.373Z,5.10
2018-12-08T19:05:08.544Z,5.03
2018-12-08T19:07:37.546Z,4.60
2018-12-08T19:10:06.421Z,5.53
2018-12-08T19:12:38.069Z,4.13
2018-12-08T19:15:07.315Z,5.13
2018-12-08T19:17:36.014Z,6.83
2018-12-08T19:20:05.343Z,5.67
2018-12-08T19:22:33.996Z,4.70
2018-12-08T19:25:02.890Z,5.30
2018-12-08T19:27:31.568Z,4.03
2018-12-08T19:30:00.347Z,3.73
2018-12-08T19:32:29.183Z,4.10
2018-12-08T19:34:58.041Z,4.67
2018-12-08T19:37:26.828Z,4.20
2018-12-08T19:39:55.407Z,3.80
2018-12-08T19:42:24.107Z,4.10
2018-12-08T19:44:52.955Z,4.50
2018-12-08T19:47:21.772Z,3.73
2018-12-08T19:49:50.546Z,4.20
2018-12-08T19:52:19.138Z,4.67
2018-12-08T19:54:47.994Z,3.70
2018-12-08T19:57:17.051Z,3.83
2018-12-08T19:59:46.355Z,3.43
2018-12-08T20:02:15.317Z,3.43
2018-12-08T20:04:44.111Z,3.67
2018-12-08T20:07:12.777Z,3.40
2018-12-08T20:09:41.748Z,3.60
2018-12-08T20:12:10.351Z,3.10
2018-12-08T20:14:38.893Z,3.30
2018-12-08T20:17:07.819Z,3.97
2018-12-08T20:19:36.655Z,3.00
2018-12-08T20:22:05.570Z,3.97
2018-12-08T20:24:34.246Z,3.70
2018-12-08T20:27:03.012Z,2.97
2018-12-08T20:29:32.013Z,3.30
2018-12-08T20:32:00.518Z,3.20
2018-12-08T20:34:29.265Z,4.17
2018-12-08T20:36:57.978Z,3.37
2018-12-08T20:39:26.615Z,3.47
2018-12-08T20:41:55.356Z,3.43
2018-12-08T20:44:24.015Z,6.30
2018-12-08T20:46:53.179Z,4.53
2018-12-08T20:49:22.168Z,3.30
2018-12-08T20:51:51.521Z,3.37
2018-12-08T20:54:20.934Z,3.87
2018-12-08T20:56:50.921Z,4.70
2018-12-08T20:59:21.071Z,3.90
2018-12-08T21:01:51.212Z,3.53
2018-12-08T21:04:21.229Z,3.80
2018-12-08T21:06:51.246Z,3.33
2018-12-08T21:09:22.435Z,3.23
2018-12-08T21:11:52.743Z,2.87
2018-12-08T21:14:23.509Z,3.17
2018-12-08T21:16:54.207Z,3.17
2018-12-08T21:19:25.219Z,3.07
2018-12-08T21:21:56.239Z,3.43
2018-12-08T21:24:27.129Z,2.50
2018-12-08T21:26:58.065Z,2.27
2018-12-08T21:29:28.686Z,1.97
2018-12-08T21:31:57.371Z,1.80
2018-12-08T21:34:26.160Z,2.33
2018-12-08T21:36:55.005Z,1.77
2018-12-08T21:39:23.671Z,2.20
2018-12-08T21:41:52.506Z,2.23
2018-12-08T21:44:21.431Z,2.35
2018-12-08T21:46:50.032Z,2.10
2018-12-08T21:49:18.890Z,1.80
2018-12-08T21:51:47.611Z,2.10
2018-12-08T21:54:16.441Z,2.10
2018-12-08T21:56:45.133Z,1.50
2018-12-08T21:59:13.914Z,2.07
2018-12-08T22:01:42.797Z,1.90
2018-12-08T22:04:11.766Z,2.13
2018-12-08T22:06:40.574Z,1.43
2018-12-08T22:09:09.596Z,1.50
2018-12-08T22:11:38.219Z,1.50
2018-12-08T22:14:06.860Z,1.53
2018-12-08T22:16:35.662Z,1.57
2018-12-08T22:19:04.621Z,1.90
2018-12-08T22:21:33.367Z,2.03
2018-12-08T22:24:01.948Z,2.27
2018-12-08T22:26:30.846Z,2.03
2018-12-08T22:28:59.477Z,2.33
2018-12-08T22:31:28.378Z,2.13
2018-12-08T22:33:57.162Z,2.00
2018-12-08T22:36:25.950Z,2.10
2018-12-08T22:38:54.738Z,2.40
2018-12-08T22:41:23.530Z,2.07
2018-12-08T22:43:52.313Z,2.40
2018-12-08T22:46:21.292Z,2.30
2018-12-08T22:48:49.987Z,2.33
2018-12-08T22:51:18.629Z,2.23
2018-12-08T22:53:47.327Z,2.13
2018-12-08T22:56:16.046Z,2.20
2018-12-08T22:58:44.814Z,2.40
2018-12-08T23:01:13.465Z,1.80
2018-12-08T23:03:42.388Z,2.17
2018-12-08T23:06:11.087Z,2.10
2018-12-08T23:08:39.976Z,2.07
2018-12-08T23:11:08.842Z,2.40
2018-12-08T23:13:37.586Z,2.40
2018-12-08T23:16:06.555Z,2.33
2018-12-08T23:18:35.263Z,2.40
2018-12-08T23:21:03.999Z,2.50
2018-12-08T23:23:32.642Z,2.33
2018-12-08T23:26:01.496Z,2.53
2018-12-08T23:28:30.306Z,2.73
2018-12-08T23:30:59.155Z,2.20
2018-12-08T23:33:27.851Z,2.70
2018-12-08T23:35:56.531Z,2.33
2018-12-08T23:38:25.325Z,1.93
2018-12-08T23:40:54.097Z,2.33
2018-12-08T23:43:22.805Z,1.90
2018-12-08T23:45:51.540Z,2.47
2018-12-08T23:48:20.067Z,2.10
2018-12-08T23:50:49.126Z,2.53
2018-12-08T23:53:18.301Z,2.47
2018-12-08T23:55:47.242Z,2.10
2018-12-08T23:58:16.328Z,2.30
